createdAt,value
2022-10-05T00:00:31.427Z,22.60
2022-10-05T00:02:59.306Z,22.60
2022-10-05T00:05:31.251Z,22.60
2022-10-05T00:08:12.679Z,22.60
2022-10-05T00:10:42.082Z,22.50
2022-10-05T00:13:14.224Z,22.50
2022-10-05T00:15:42.578Z,22.50
2022-10-05T00:18:15.017Z,22.50
2022-10-05T00:20:44.628Z,22.50
2022-10-05T00:23:18.661Z,22.50
2022-10-05T00:25:47.006Z,22.50
2022-10-05T00:28:19.347Z,22.50
2022-10-05T00:30:47.289Z,22.50
2022-10-05T00:33:15.062Z,22.50
2022-10-05T00:35:44.209Z,22.50
2022-10-05T00:38:11.958Z,22.50
2022-10-05T00:40:56.947Z,22.50
2022-10-05T00:43:52.244Z,22.50
2022-10-05T00:46:26.622Z,22.50
2022-10-05T00:49:04.142Z,22.50
2022-10-05T00:51:36.920Z,22.50
2022-10-05T00:54:21.425Z,22.50
2022-10-05T00:57:13.601Z,22.50
2022-10-05T00:59:53.262Z,22.50
2022-10-05T01:02:26.370Z,22.50
2022-10-05T01:04:59.103Z,22.50
2022-10-05T01:07:39.476Z,22.50
2022-10-05T01:10:16.753Z,22.50
2022-10-05T01:12:54.062Z,22.50
2022-10-05T01:15:27.088Z,22.50
2022-10-05T01:18:01.682Z,22.50
2022-10-05T01:20:41.404Z,22.50
2022-10-05T01:23:40.257Z,22.50
2022-10-05T01:26:22.053Z,22.50
2022-10-05T01:28:58.677Z,22.50
2022-10-05T01:31:32.295Z,22.50
2022-10-05T01:34:14.750Z,22.50
2022-10-05T01:36:50.641Z,22.50
2022-10-05T01:39:25.264Z,22.50
2022-10-05T01:41:59.082Z,22.50
2022-10-05T01:44:31.960Z,22.50
2022-10-05T01:47:07.685Z,22.50
2022-10-05T01:49:38.942Z,22.50
2022-10-05T01:52:22.043Z,22.50
2022-10-05T01:54:58.564Z,22.50
2022-10-05T01:57:35.663Z,22.50
2022-10-05T02:00:09.729Z,22.50
2022-10-05T02:02:49.246Z,22.50
2022-10-05T02:05:22.007Z,22.50
2022-10-05T02:07:54.496Z,22.50
2022-10-05T02:10:27.047Z,22.50
2022-10-05T02:13:01.111Z,22.50
2022-10-05T02:15:41.589Z,22.50
2022-10-05T02:18:15.049Z,22.50
2022-10-05T02:20:44.193Z,22.50
2022-10-05T02:23:14.674Z,22.50
2022-10-05T02:25:47.019Z,22.50
2022-10-05T02:28:21.418Z,22.50
2022-10-05T02:30:55.697Z,22.50
2022-10-05T02:33:29.215Z,22.50
2022-10-05T02:36:02.862Z,22.50
2022-10-05T02:38:40.898Z,22.50
2022-10-05T02:41:17.600Z,22.50
2022-10-05T02:43:54.340Z,22.50
2022-10-05T02:46:35.160Z,22.50
2022-10-05T02:49:15.417Z,22.50
2022-10-05T02:51:51.900Z,22.50
2022-10-05T02:54:32.502Z,22.50
2022-10-05T02:57:05.618Z,22.40
2022-10-05T02:59:39.976Z,22.50
2022-10-05T03:02:19.364Z,22.40
2022-10-05T03:04:55.961Z,22.50
2022-10-05T03:07:28.639Z,22.40
2022-10-05T03:10:07.383Z,22.50
2022-10-05T03:12:48.600Z,22.40
2022-10-05T03:15:32.277Z,22.40
2022-10-05T03:18:12.238Z,22.40
2022-10-05T03:20:48.387Z,22.40
2022-10-05T03:23:26.057Z,22.40
2022-10-05T03:26:03.782Z,22.40
2022-10-05T03:28:38.045Z,22.40
2022-10-05T03:31:15.664Z,22.40
2022-10-05T03:33:48.842Z,22.40
2022-10-05T03:36:23.503Z,22.40
2022-10-05T03:38:59.688Z,22.40
2022-10-05T03:41:34.867Z,22.40
2022-10-05T03:44:25.989Z,22.40
2022-10-05T03:47:08.948Z,22.40
2022-10-05T03:49:50.632Z,22.40
2022-10-05T03:52:23.110Z,22.40
2022-10-05T03:54:57.010Z,22.40
2022-10-05T03:57:28.062Z,22.40
2022-10-05T04:00:02.054Z,22.40
2022-10-05T04:02:44.628Z,22.40
2022-10-05T04:05:18.468Z,22.40
2022-10-05T04:07:50.756Z,22.40
2022-10-05T04:10:22.853Z,22.40
2022-10-05T04:12:56.362Z,22.40
2022-10-05T04:15:30.964Z,22.40
2022-10-05T04:18:04.458Z,22.40
2022-10-05T04:20:40.873Z,22.40
2022-10-05T04:23:18.345Z,22.40
2022-10-05T04:25:49.713Z,22.40
2022-10-05T04:28:31.032Z,22.40
2022-10-05T04:31:04.604Z,22.40
2022-10-05T04:33:33.570Z,22.40
2022-10-05T04:36:17.628Z,22.40
2022-10-05T04:38:54.874Z,22.40
2022-10-05T04:41:45.458Z,22.40
2022-10-05T04:44:28.698Z,22.40
2022-10-05T04:47:11.503Z,22.40
2022-10-05T04:50:04.875Z,22.40
2022-10-05T04:52:45.562Z,22.40
2022-10-05T04:55:22.809Z,22.40
2022-10-05T04:57:57.431Z,22.40
2022-10-05T05:00:28.237Z,22.40
2022-10-05T05:03:18.946Z,22.40
2022-10-05T05:06:15.761Z,22.40
2022-10-05T05:09:02.440Z,22.40
2022-10-05T05:11:41.202Z,22.40
2022-10-05T05:14:40.613Z,22.30
2022-10-05T05:17:20.594Z,22.30
2022-10-05T05:19:59.525Z,22.30
2022-10-05T05:22:36.122Z,22.30
2022-10-05T05:25:36.541Z,22.30
2022-10-05T05:28:24.133Z,22.30
2022-10-05T05:31:01.400Z,22.30
2022-10-05T05:33:37.165Z,22.30
2022-10-05T05:36:28.277Z,22.30
2022-10-05T05:39:13.173Z,22.30
2022-10-05T05:41:52.565Z,22.30
2022-10-05T05:44:25.009Z,22.30
2022-10-05T05:47:05.055Z,22.30
2022-10-05T05:49:48.802Z,22.30
2022-10-05T05:52:22.642Z,22.30
2022-10-05T05:54:56.468Z,22.30
2022-10-05T05:57:30.571Z,22.30
2022-10-05T06:00:06.018Z,22.30
2022-10-05T06:02:55.208Z,22.30
2022-10-05T06:05:31.886Z,22.30
2022-10-05T06:08:06.986Z,22.30
2022-10-05T06:10:41.342Z,22.30
2022-10-05T06:13:19.021Z,22.30
2022-10-05T06:15:53.124Z,22.30
2022-10-05T06:18:23.093Z,22.30
2022-10-05T06:20:58.445Z,22.30
2022-10-05T06:23:31.090Z,22.30
2022-10-05T06:26:12.935Z,22.30
2022-10-05T06:28:43.874Z,22.30
2022-10-05T06:31:24.743Z,22.30
2022-10-05T06:34:05.814Z,22.30
2022-10-05T06:36:41.854Z,22.30
2022-10-05T06:39:34.558Z,22.30
2022-10-05T06:42:20.017Z,22.30
2022-10-05T06:45:21.304Z,22.30
2022-10-05T06:48:08.332Z,22.30
2022-10-05T06:51:10.927Z,22.30
2022-10-05T06:54:09.030Z,22.30
2022-10-05T06:56:42.098Z,22.30
2022-10-05T06:59:18.960Z,22.30
2022-10-05T07:01:56.512Z,22.30
2022-10-05T07:04:43.956Z,22.30
2022-10-05T07:07:22.360Z,22.30
2022-10-05T07:10:04.260Z,22.30
2022-10-05T07:12:46.402Z,22.30
2022-10-05T07:15:28.202Z,22.30
2022-10-05T07:18:11.652Z,22.30
2022-10-05T07:20:49.169Z,22.30
2022-10-05T07:23:35.399Z,22.30
2022-10-05T07:26:08.388Z,22.30
2022-10-05T07:28:45.014Z,22.30
2022-10-05T07:31:19.341Z,22.30
2022-10-05T07:33:56.217Z,22.30
2022-10-05T07:36:55.183Z,22.30
2022-10-05T07:39:55.480Z,22.30
2022-10-05T07:42:32.543Z,22.30
2022-10-05T07:45:09.135Z,22.40
2022-10-05T07:47:43.448Z,22.30
2022-10-05T07:50:20.646Z,22.40
2022-10-05T07:52:54.800Z,22.40
2022-10-05T07:55:25.133Z,22.40
2022-10-05T07:58:02.764Z,22.40
2022-10-05T08:00:52.328Z,22.40
2022-10-05T08:03:30.214Z,22.40
2022-10-05T08:06:01.318Z,22.40
2022-10-05T08:08:36.480Z,22.40
2022-10-05T08:11:13.665Z,22.40
2022-10-05T08:13:49.286Z,22.40
2022-10-05T08:16:17.787Z,22.40
2022-10-05T08:18:55.118Z,22.40
2022-10-05T08:21:31.604Z,22.40
2022-10-05T08:24:04.045Z,22.40
2022-10-05T08:26:39.389Z,22.40
2022-10-05T08:29:16.890Z,22.40
2022-10-05T08:31:48.729Z,22.40
2022-10-05T08:34:26.743Z,22.40
2022-10-05T08:37:03.163Z,22.40
2022-10-05T08:39:37.042Z,22.40
2022-10-05T08:42:41.830Z,22.40
2022-10-05T08:45:56.543Z,22.40
2022-10-05T08:48:58.286Z,22.40
2022-10-05T08:52:09.758Z,22.40
2022-10-05T08:54:52.306Z,22.50
2022-10-05T08:57:49.748Z,22.40
2022-10-05T09:00:20.578Z,22.50
2022-10-05T09:03:15.088Z,22.50
2022-10-05T09:06:14.260Z,22.50
2022-10-05T09:09:06.174Z,22.50
2022-10-05T09:11:38.854Z,22.50
2022-10-05T09:14:23.209Z,22.50
2022-10-05T09:17:08.665Z,22.50
2022-10-05T09:20:00.745Z,22.50
2022-10-05T09:22:37.870Z,22.50
2022-10-05T09:25:17.047Z,22.50
2022-10-05T09:27:53.509Z,22.50
2022-10-05T09:30:27.838Z,22.50
2022-10-05T09:33:34.556Z,22.50
2022-10-05T09:36:23.865Z,22.60
2022-10-05T09:39:13.257Z,22.60
2022-10-05T09:42:04.518Z,22.60
2022-10-05T09:44:57.207Z,22.60
2022-10-05T09:47:54.764Z,22.60
2022-10-05T09:51:02.955Z,22.60
2022-10-05T09:54:16.223Z,22.60
2022-10-05T09:57:06.148Z,22.60
2022-10-05T10:00:09.417Z,22.70
2022-10-05T10:03:39.211Z,22.70
2022-10-05T10:06:25.268Z,22.70
2022-10-05T10:09:10.535Z,22.70
2022-10-05T10:11:50.405Z,22.70
2022-10-05T10:14:44.940Z,22.70
2022-10-05T10:17:35.414Z,22.70
2022-10-05T10:20:23.421Z,22.70
2022-10-05T10:23:28.278Z,22.70
2022-10-05T10:26:25.100Z,22.70
2022-10-05T10:29:20.686Z,22.70
2022-10-05T10:32:05.622Z,22.70
2022-10-05T10:35:12.554Z,22.70
2022-10-05T10:38:09.619Z,22.70
2022-10-05T10:40:43.000Z,22.70
2022-10-05T10:43:52.381Z,22.70
2022-10-05T10:46:35.377Z,22.70
2022-10-05T10:49:17.084Z,22.70
2022-10-05T10:52:04.294Z,22.70
2022-10-05T10:55:08.700Z,22.70
2022-10-05T10:57:56.881Z,22.80
2022-10-05T11:00:39.423Z,22.80
2022-10-05T11:03:37.362Z,22.80
2022-10-05T11:06:36.048Z,22.80
2022-10-05T11:09:45.425Z,22.80
2022-10-05T11:12:53.116Z,22.80
2022-10-05T11:15:55.942Z,22.80
2022-10-05T11:18:30.379Z,22.80
2022-10-05T11:21:18.297Z,22.80
2022-10-05T11:24:19.343Z,22.80
2022-10-05T11:27:12.947Z,22.80
2022-10-05T11:30:21.503Z,22.80
2022-10-05T11:33:22.033Z,22.80
2022-10-05T11:36:15.620Z,22.80
2022-10-05T11:39:04.184Z,22.80
2022-10-05T11:42:03.997Z,22.80
2022-10-05T11:45:08.168Z,22.80
2022-10-05T11:47:41.924Z,22.80
2022-10-05T11:50:21.364Z,22.80
2022-10-05T11:52:53.023Z,22.80
2022-10-05T11:55:27.463Z,22.80
2022-10-05T11:57:57.429Z,22.80
2022-10-05T12:00:32.140Z,22.80
2022-10-05T12:03:28.575Z,22.80
2022-10-05T12:06:07.614Z,22.80
2022-10-05T12:08:44.091Z,22.80
2022-10-05T12:11:32.665Z,22.80
2022-10-05T12:14:05.927Z,22.90
2022-10-05T12:16:45.572Z,22.80
2022-10-05T12:19:18.676Z,22.90
2022-10-05T12:21:50.938Z,22.90
2022-10-05T12:24:27.841Z,22.90
2022-10-05T12:27:00.895Z,22.90
2022-10-05T12:29:34.206Z,22.90
2022-10-05T12:32:11.580Z,23.00
2022-10-05T12:34:50.975Z,22.90
2022-10-05T12:37:41.061Z,23.00
2022-10-05T12:40:23.022Z,23.00
2022-10-05T12:42:58.069Z,23.00
2022-10-05T12:45:37.316Z,23.00
2022-10-05T12:48:23.344Z,23.00
2022-10-05T12:50:55.096Z,23.00
2022-10-05T12:53:34.464Z,23.00
2022-10-05T12:56:06.401Z,23.00
2022-10-05T12:58:48.961Z,23.00
2022-10-05T13:01:27.919Z,23.10
2022-10-05T13:04:04.257Z,23.10
2022-10-05T13:06:42.913Z,23.10
2022-10-05T13:09:19.498Z,23.10
2022-10-05T13:11:50.865Z,23.10
2022-10-05T13:14:26.114Z,23.10
2022-10-05T13:17:01.699Z,23.10
2022-10-05T13:19:41.361Z,23.10
2022-10-05T13:22:26.330Z,23.20
2022-10-05T13:25:06.178Z,23.20
2022-10-05T13:27:37.888Z,23.20
2022-10-05T13:30:13.446Z,23.20
2022-10-05T13:32:45.132Z,23.20
2022-10-05T13:35:25.391Z,23.20
2022-10-05T13:38:01.677Z,23.20
2022-10-05T13:40:36.543Z,23.20
2022-10-05T13:43:14.401Z,23.20
2022-10-05T13:45:46.700Z,23.20
2022-10-05T13:48:24.054Z,23.20
2022-10-05T13:51:03.750Z,23.20
2022-10-05T13:53:38.050Z,23.30
2022-10-05T13:56:16.558Z,23.30
2022-10-05T13:58:48.712Z,23.30
2022-10-05T14:01:19.583Z,23.30
2022-10-05T14:04:06.580Z,23.30
2022-10-05T14:06:37.962Z,23.30
2022-10-05T14:09:11.516Z,23.30
2022-10-05T14:11:49.417Z,23.40
2022-10-05T14:14:24.156Z,23.30
2022-10-05T14:16:54.613Z,23.40
2022-10-05T14:19:27.875Z,23.40
2022-10-05T14:22:01.646Z,23.40
2022-10-05T14:24:43.654Z,23.40
2022-10-05T14:27:21.908Z,23.40
2022-10-05T14:29:59.644Z,23.40
2022-10-05T14:32:30.937Z,23.50
2022-10-05T14:35:12.750Z,23.50
2022-10-05T14:37:50.100Z,23.50
2022-10-05T14:40:28.903Z,23.50
2022-10-05T14:42:57.342Z,23.50
2022-10-05T14:45:29.033Z,23.50
2022-10-05T14:48:09.732Z,23.50
2022-10-05T14:50:54.929Z,23.60
2022-10-05T14:53:25.648Z,23.60
2022-10-05T14:56:01.853Z,23.60
2022-10-05T14:58:46.341Z,23.60
2022-10-05T15:01:20.403Z,23.60
2022-10-05T15:03:54.968Z,23.60
2022-10-05T15:06:30.801Z,23.60
2022-10-05T15:09:26.994Z,23.60
2022-10-05T15:11:57.421Z,23.70
2022-10-05T15:14:31.667Z,23.70
2022-10-05T15:17:03.406Z,23.70
2022-10-05T15:19:47.642Z,23.70
2022-10-05T15:22:26.026Z,23.70
2022-10-05T15:25:03.884Z,23.70
2022-10-05T15:27:43.484Z,23.70
2022-10-05T15:30:13.354Z,23.70
2022-10-05T15:33:05.138Z,23.70
2022-10-05T15:35:39.228Z,23.70
2022-10-05T15:38:21.610Z,23.70
2022-10-05T15:41:16.392Z,23.70
2022-10-05T15:43:53.628Z,23.70
2022-10-05T15:46:28.685Z,23.70
2022-10-05T15:49:20.448Z,23.70
2022-10-05T15:51:56.417Z,23.70
2022-10-05T15:54:52.401Z,23.70
2022-10-05T15:57:26.768Z,23.70
2022-10-05T16:00:01.882Z,23.70
2022-10-05T16:02:42.615Z,23.70
2022-10-05T16:05:43.354Z,23.70
2022-10-05T16:08:51.017Z,23.70
2022-10-05T16:11:30.714Z,23.70
2022-10-05T16:14:07.288Z,23.70
2022-10-05T16:16:44.258Z,23.70
2022-10-05T16:19:20.664Z,23.70
2022-10-05T16:21:54.360Z,23.70
2022-10-05T16:24:40.648Z,23.70
2022-10-05T16:27:16.074Z,23.70
2022-10-05T16:29:55.645Z,23.70
2022-10-05T16:32:30.089Z,23.70
2022-10-05T16:35:08.693Z,23.70
2022-10-05T16:37:41.878Z,23.70
2022-10-05T16:40:18.886Z,23.70
2022-10-05T16:42:58.131Z,23.70
2022-10-05T16:45:45.756Z,23.70
2022-10-05T16:48:20.462Z,23.70
2022-10-05T16:51:09.344Z,23.60
2022-10-05T16:53:41.014Z,23.60
2022-10-05T16:56:12.871Z,23.60
2022-10-05T16:58:54.804Z,23.60
2022-10-05T17:01:41.834Z,23.60
2022-10-05T17:04:23.555Z,23.50
2022-10-05T17:07:20.122Z,23.60
2022-10-05T17:10:05.370Z,23.50
2022-10-05T17:12:46.473Z,23.50
2022-10-05T17:15:29.481Z,23.40
2022-10-05T17:18:17.083Z,23.40
2022-10-05T17:20:57.324Z,23.40
2022-10-05T17:23:37.685Z,23.40
2022-10-05T17:26:32.175Z,23.40
2022-10-05T17:29:01.663Z,23.40
2022-10-05T17:31:31.866Z,23.40
2022-10-05T17:34:27.157Z,23.30
2022-10-05T17:36:59.636Z,23.30
2022-10-05T17:39:50.118Z,23.30
2022-10-05T17:42:46.496Z,23.30
2022-10-05T17:45:53.905Z,23.30
2022-10-05T17:49:03.014Z,23.30
2022-10-05T17:52:18.704Z,23.30
2022-10-05T17:55:19.485Z,23.30
2022-10-05T17:57:47.262Z,23.20
2022-10-05T18:00:41.914Z,23.30
2022-10-05T18:03:35.329Z,23.20
2022-10-05T18:06:33.186Z,23.20
2022-10-05T18:09:34.218Z,23.20
2022-10-05T18:12:12.485Z,23.20
2022-10-05T18:14:57.475Z,23.20
2022-10-05T18:17:39.852Z,23.20
2022-10-05T18:20:19.294Z,23.20
2022-10-05T18:22:47.906Z,23.20
2022-10-05T18:25:30.612Z,23.20
2022-10-05T18:28:14.676Z,23.20
2022-10-05T18:30:58.792Z,23.10
2022-10-05T18:33:50.508Z,23.20
2022-10-05T18:36:35.446Z,23.20
2022-10-05T18:39:15.006Z,23.20
2022-10-05T18:41:54.547Z,23.10
2022-10-05T18:44:35.524Z,23.10
2022-10-05T18:47:12.744Z,23.10
2022-10-05T18:49:54.088Z,23.10
2022-10-05T18:52:32.036Z,23.10
2022-10-05T18:55:11.605Z,23.10
2022-10-05T18:57:52.018Z,23.10
2022-10-05T19:00:22.078Z,23.10
2022-10-05T19:02:53.355Z,23.10
2022-10-05T19:05:47.598Z,23.10
2022-10-05T19:08:29.474Z,23.10
2022-10-05T19:11:03.485Z,23.10
2022-10-05T19:13:41.923Z,23.10
2022-10-05T19:16:29.734Z,23.10
2022-10-05T19:19:12.784Z,23.00
2022-10-05T19:21:49.736Z,23.00
2022-10-05T19:24:32.156Z,23.00
2022-10-05T19:27:09.122Z,23.00
2022-10-05T19:30:02.140Z,23.00
2022-10-05T19:32:39.982Z,23.00
2022-10-05T19:35:18.140Z,23.00
2022-10-05T19:37:53.491Z,23.00
2022-10-05T19:40:29.091Z,23.00
2022-10-05T19:43:11.748Z,23.00
2022-10-05T19:45:48.388Z,23.00
2022-10-05T19:48:29.331Z,23.00
2022-10-05T19:50:59.793Z,23.00
2022-10-05T19:53:30.689Z,23.00
2022-10-05T19:56:17.308Z,23.00
2022-10-05T19:58:45.385Z,23.00
2022-10-05T20:01:24.659Z,23.00
2022-10-05T20:03:53.203Z,23.00
2022-10-05T20:06:22.654Z,23.00
2022-10-05T20:08:52.361Z,23.00
2022-10-05T20:11:22.518Z,23.00
2022-10-05T20:14:18.146Z,23.00
2022-10-05T20:17:04.705Z,23.00
2022-10-05T20:20:10.427Z,23.00
2022-10-05T20:22:45.970Z,23.00
2022-10-05T20:25:30.010Z,23.00
2022-10-05T20:27:58.330Z,23.00
2022-10-05T20:30:28.332Z,23.00
2022-10-05T20:32:59.506Z,22.90
2022-10-05T20:35:29.349Z,23.00
2022-10-05T20:37:59.326Z,22.90
2022-10-05T20:40:27.426Z,23.00
2022-10-05T20:42:55.299Z,22.90
2022-10-05T20:45:23.107Z,22.90
2022-10-05T20:47:50.819Z,22.90
2022-10-05T20:50:20.998Z,22.90
2022-10-05T20:52:48.759Z,22.90
2022-10-05T20:55:16.688Z,22.90
2022-10-05T20:57:46.000Z,22.90
2022-10-05T21:00:14.701Z,22.90
2022-10-05T21:02:42.408Z,22.90
2022-10-05T21:05:10.831Z,22.90
2022-10-05T21:07:40.749Z,22.90
2022-10-05T21:10:09.258Z,22.90
2022-10-05T21:12:37.080Z,22.90
2022-10-05T21:15:05.766Z,22.90
2022-10-05T21:17:35.001Z,22.90
2022-10-05T21:20:03.047Z,22.90
2022-10-05T21:22:30.829Z,22.90
2022-10-05T21:24:59.935Z,22.90
2022-10-05T21:27:28.115Z,22.90
2022-10-05T21:29:55.865Z,22.90
2022-10-05T21:32:23.609Z,22.90
2022-10-05T21:34:51.404Z,22.90
2022-10-05T21:37:19.757Z,22.90
2022-10-05T21:39:47.491Z,22.90
2022-10-05T21:42:16.552Z,22.90
2022-10-05T21:44:44.259Z,22.90
2022-10-05T21:47:12.533Z,22.90
2022-10-05T21:49:40.483Z,22.90
2022-10-05T21:52:08.327Z,22.90
2022-10-05T21:54:36.168Z,22.90
2022-10-05T21:57:04.297Z,22.90
2022-10-05T21:59:35.156Z,22.90
2022-10-05T22:02:03.403Z,22.90
2022-10-05T22:04:31.259Z,22.90
2022-10-05T22:06:59.272Z,22.90
2022-10-05T22:09:27.098Z,22.90
2022-10-05T22:11:54.895Z,22.90
2022-10-05T22:14:22.757Z,22.90
2022-10-05T22:16:53.230Z,22.90
2022-10-05T22:19:21.417Z,22.90
2022-10-05T22:21:49.165Z,22.90
2022-10-05T22:24:16.919Z,22.90
2022-10-05T22:26:47.912Z,22.90
2022-10-05T22:29:17.565Z,22.90
2022-10-05T22:31:48.486Z,22.90
2022-10-05T22:34:18.167Z,22.90
2022-10-05T22:36:47.276Z,22.90
2022-10-05T22:39:15.129Z,22.90
2022-10-05T22:41:42.922Z,22.80
2022-10-05T22:44:10.783Z,22.90
2022-10-05T22:46:38.581Z,22.90
2022-10-05T22:49:06.375Z,22.90
2022-10-05T22:51:35.654Z,22.90
2022-10-05T22:54:03.396Z,22.80
2022-10-05T22:56:31.152Z,22.80
2022-10-05T22:58:58.880Z,22.90
2022-10-05T23:01:27.021Z,22.90
2022-10-05T23:03:55.488Z,22.90
2022-10-05T23:06:23.964Z,22.90
2022-10-05T23:08:53.836Z,22.90
2022-10-05T23:11:23.669Z,22.90
2022-10-05T23:13:52.378Z,22.80
2022-10-05T23:16:22.184Z,22.90
2022-10-05T23:18:51.119Z,22.90
2022-10-05T23:21:19.973Z,22.90
2022-10-05T23:23:50.923Z,22.90
2022-10-05T23:26:22.240Z,22.90
2022-10-05T23:28:50.198Z,22.90
2022-10-05T23:31:19.947Z,22.80
2022-10-05T23:33:48.068Z,22.90
2022-10-05T23:36:17.706Z,22.90
2022-10-05T23:38:45.874Z,22.80
2022-10-05T23:41:14.320Z,22.80
2022-10-05T23:43:44.146Z,22.80
2022-10-05T23:46:12.729Z,22.80
2022-10-05T23:48:40.573Z,22.80
2022-10-05T23:51:10.360Z,22.80
2022-10-05T23:53:38.649Z,22.80
2022-10-05T23:56:06.906Z,22.80
2022-10-05T23:58:34.640Z,22.80
